sensor_id;sensor_type;location;lat;lon;timestamp;P1;durP1;ratioP1;P2;durP2;ratioP2
7473;SDS011;3778;42.572;23.426;2024-03-23T00:56:09;5.22;;;2.65;;
7473;SDS011;3778;42.572;23.426;2024-03-23T00:58:34;3.88;;;2.55;;
7473;SDS011;3778;42.572;23.426;2024-03-23T01:01:00;5.68;;;2.88;;
7473;SDS011;3778;42.572;23.426;2024-03-23T01:03:25;4.93;;;3.22;;
7473;SDS011;3778;42.572;23.426;2024-03-23T01:05:51;6.00;;;3.00;;
7473;SDS011;3778;42.572;23.426;2024-03-23T01:08:18;7.45;;;3.28;;
7473;SDS011;3778;42.572;23.426;2024-03-23T01:10:53;3.88;;;2.13;;
7473;SDS011;3778;42.572;23.426;2024-03-23T01:13:19;7.68;;;3.65;;
7473;SDS011;3778;42.572;23.426;2024-03-23T01:15:50;4.93;;;3.33;;
7473;SDS011;3778;42.572;23.426;2024-03-23T01:18:17;21.20;;;4.63;;
7473;SDS011;3778;42.572;23.426;2024-03-23T01:20:43;5.13;;;2.65;;
7473;SDS011;3778;42.572;23.426;2024-03-23T01:23:08;4.78;;;2.60;;
7473;SDS011;3778;42.572;23.426;2024-03-23T01:25:34;4.30;;;2.35;;
7473;SDS011;3778;42.572;23.426;2024-03-23T01:27:59;5.28;;;3.15;;
7473;SDS011;3778;42.572;23.426;2024-03-23T01:30:25;5.95;;;2.65;;
7473;SDS011;3778;42.572;23.426;2024-03-23T01:32:50;4.72;;;3.40;;
7473;SDS011;3778;42.572;23.426;2024-03-23T01:35:15;4.38;;;3.53;;
7473;SDS011;3778;42.572;23.426;2024-03-23T01:37:41;7.25;;;4.03;;
7473;SDS011;3778;42.572;23.426;2024-03-23T01:40:06;9.98;;;3.67;;
7473;SDS011;3778;42.572;23.426;2024-03-23T01:42:32;5.47;;;4.40;;
7473;SDS011;3778;42.572;23.426;2024-03-23T01:44:58;6.80;;;3.15;;
7473;SDS011;3778;42.572;23.426;2024-03-23T01:47:23;5.57;;;3.13;;
7473;SDS011;3778;42.572;23.426;2024-03-23T01:49:49;12.55;;;4.28;;
7473;SDS011;3778;42.572;23.426;2024-03-23T01:52:14;3.97;;;2.90;;
7473;SDS011;3778;42.572;23.426;2024-03-23T01:54:40;5.32;;;3.08;;
7473;SDS011;3778;42.572;23.426;2024-03-23T01:57:06;5.55;;;3.00;;
7473;SDS011;3778;42.572;23.426;2024-03-23T01:59:32;10.43;;;5.00;;
7473;SDS011;3778;42.572;23.426;2024-03-23T02:01:57;4.10;;;2.88;;
7473;SDS011;3778;42.572;23.426;2024-03-23T02:04:23;8.05;;;3.85;;
7473;SDS011;3778;42.572;23.426;2024-03-23T02:06:48;4.07;;;2.95;;
7473;SDS011;3778;42.572;23.426;2024-03-23T02:09:14;5.40;;;3.22;;
7473;SDS011;3778;42.572;23.426;2024-03-23T02:11:40;5.32;;;2.67;;
7473;SDS011;3778;42.572;23.426;2024-03-23T02:14:05;6.68;;;4.90;;
7473;SDS011;3778;42.572;23.426;2024-03-23T02:16:32;10.18;;;4.63;;
7473;SDS011;3778;42.572;23.426;2024-03-23T02:18:58;11.50;;;3.78;;
7473;SDS011;3778;42.572;23.426;2024-03-23T02:21:23;5.22;;;3.67;;
7473;SDS011;3778;42.572;23.426;2024-03-23T02:23:49;3.00;;;2.50;;
7473;SDS011;3778;42.572;23.426;2024-03-23T02:26:14;4.03;;;3.17;;
7473;SDS011;3778;42.572;23.426;2024-03-23T02:28:40;7.38;;;3.03;;
7473;SDS011;3778;42.572;23.426;2024-03-23T02:31:06;9.43;;;4.38;;
7473;SDS011;3778;42.572;23.426;2024-03-23T02:33:31;4.28;;;3.13;;
7473;SDS011;3778;42.572;23.426;2024-03-23T02:35:57;3.13;;;2.70;;
7473;SDS011;3778;42.572;23.426;2024-03-23T02:38:23;5.60;;;2.90;;
7473;SDS011;3778;42.572;23.426;2024-03-23T02:40:49;9.60;;;4.22;;
7473;SDS011;3778;42.572;23.426;2024-03-23T02:43:15;6.05;;;3.22;;
7473;SDS011;3778;42.572;23.426;2024-03-23T02:45:40;4.97;;;3.17;;
7473;SDS011;3778;42.572;23.426;2024-03-23T02:48:06;4.80;;;3.15;;
7473;SDS011;3778;42.572;23.426;2024-03-23T02:50:31;8.13;;;3.60;;
7473;SDS011;3778;42.572;23.426;2024-03-23T02:52:57;2.35;;;2.05;;
7473;SDS011;3778;42.572;23.426;2024-03-23T02:55:22;6.30;;;4.10;;
7473;SDS011;3778;42.572;23.426;2024-03-23T02:57:48;4.53;;;3.72;;
7473;SDS011;3778;42.572;23.426;2024-03-23T03:00:13;3.90;;;3.03;;
7473;SDS011;3778;42.572;23.426;2024-03-23T03:02:38;4.60;;;3.83;;
7473;SDS011;3778;42.572;23.426;2024-03-23T03:05:04;4.97;;;3.40;;
7473;SDS011;3778;42.572;23.426;2024-03-23T03:07:31;7.38;;;4.13;;
7473;SDS011;3778;42.572;23.426;2024-03-23T03:09:57;7.68;;;3.90;;
7473;SDS011;3778;42.572;23.426;2024-03-23T03:12:22;4.82;;;2.72;;
7473;SDS011;3778;42.572;23.426;2024-03-23T03:14:48;9.07;;;3.17;;
7473;SDS011;3778;42.572;23.426;2024-03-23T03:17:13;7.45;;;3.13;;
7473;SDS011;3778;42.572;23.426;2024-03-23T03:19:40;3.05;;;2.33;;
7473;SDS011;3778;42.572;23.426;2024-03-23T03:22:05;7.60;;;4.25;;
7473;SDS011;3778;42.572;23.426;2024-03-23T03:24:31;4.00;;;3.20;;
7473;SDS011;3778;42.572;23.426;2024-03-23T03:26:56;8.38;;;4.30;;
7473;SDS011;3778;42.572;23.426;2024-03-23T03:29:23;5.72;;;3.28;;
7473;SDS011;3778;42.572;23.426;2024-03-23T03:31:48;7.60;;;3.60;;
7473;SDS011;3778;42.572;23.426;2024-03-23T03:34:15;8.15;;;3.28;;
7473;SDS011;3778;42.572;23.426;2024-03-23T03:36:41;8.27;;;3.85;;
7473;SDS011;3778;42.572;23.426;2024-03-23T03:39:06;5.28;;;3.72;;
7473;SDS011;3778;42.572;23.426;2024-03-23T03:41:32;5.40;;;3.25;;
7473;SDS011;3778;42.572;23.426;2024-03-23T03:43:57;4.03;;;2.85;;
7473;SDS011;3778;42.572;23.426;2024-03-23T03:46:27;3.38;;;2.08;;
7473;SDS011;3778;42.572;23.426;2024-03-23T03:48:54;4.93;;;3.45;;
7473;SDS011;3778;42.572;23.426;2024-03-23T03:51:19;4.05;;;2.60;;
7473;SDS011;3778;42.572;23.426;2024-03-23T03:53:46;4.25;;;3.25;;
7473;SDS011;3778;42.572;23.426;2024-03-23T03:56:11;3.30;;;2.90;;
7473;SDS011;3778;42.572;23.426;2024-03-23T03:58:37;8.13;;;4.25;;
7473;SDS011;3778;42.572;23.426;2024-03-23T04:01:02;5.28;;;3.97;;
7473;SDS011;3778;42.572;23.426;2024-03-23T04:03:28;4.20;;;2.78;;
7473;SDS011;3778;42.572;23.426;2024-03-23T04:05:53;2.45;;;2.05;;
7473;SDS011;3778;42.572;23.426;2024-03-23T04:08:20;3.75;;;2.95;;
7473;SDS011;3778;42.572;23.426;2024-03-23T04:10:46;3.55;;;3.08;;
7473;SDS011;3778;42.572;23.426;2024-03-23T04:13:11;9.32;;;4.63;;
7473;SDS011;3778;42.572;23.426;2024-03-23T04:15:37;5.65;;;2.65;;
7473;SDS011;3778;42.572;23.426;2024-03-23T04:18:03;11.63;;;2.97;;
7473;SDS011;3778;42.572;23.426;2024-03-23T04:20:29;3.15;;;2.80;;
7473;SDS011;3778;42.572;23.426;2024-03-23T04:22:54;4.22;;;2.15;;
7473;SDS011;3778;42.572;23.426;2024-03-23T04:25:20;3.72;;;2.78;;
7473;SDS011;3778;42.572;23.426;2024-03-23T04:27:45;3.63;;;2.58;;
7473;SDS011;3778;42.572;23.426;2024-03-23T04:30:11;4.78;;;2.42;;
7473;SDS011;3778;42.572;23.426;2024-03-23T04:32:37;2.58;;;2.35;;
7473;SDS011;3778;42.572;23.426;2024-03-23T04:35:03;3.78;;;3.40;;
7473;SDS011;3778;42.572;23.426;2024-03-23T04:37:34;10.05;;;2.90;;
7473;SDS011;3778;42.572;23.426;2024-03-23T04:40:01;3.72;;;2.45;;
7473;SDS011;3778;42.572;23.426;2024-03-23T04:42:28;4.28;;;2.65;;
7473;SDS011;3778;42.572;23.426;2024-03-23T04:44:53;10.75;;;2.83;;
7473;SDS011;3778;42.572;23.426;2024-03-23T04:47:19;6.10;;;3.40;;
7473;SDS011;3778;42.572;23.426;2024-03-23T04:49:44;2.30;;;2.17;;
7473;SDS011;3778;42.572;23.426;2024-03-23T04:52:10;4.25;;;3.15;;
7473;SDS011;3778;42.572;23.426;2024-03-23T04:54:35;3.83;;;2.85;;
7473;SDS011;3778;42.572;23.426;2024-03-23T04:57:01;8.20;;;3.15;;
7473;SDS011;3778;42.572;23.426;2024-03-23T04:59:26;11.02;;;2.67;;
7473;SDS011;3778;42.572;23.426;2024-03-23T05:01:52;4.75;;;2.30;;
7473;SDS011;3778;42.572;23.426;2024-03-23T05:04:17;3.95;;;3.60;;
7473;SDS011;3778;42.572;23.426;2024-03-23T05:06:43;3.42;;;2.58;;
7473;SDS011;3778;42.572;23.426;2024-03-23T05:09:08;7.55;;;3.50;;
7473;SDS011;3778;42.572;23.426;2024-03-23T05:11:37;9.65;;;3.58;;
7473;SDS011;3778;42.572;23.426;2024-03-23T05:14:03;3.70;;;2.05;;
7473;SDS011;3778;42.572;23.426;2024-03-23T05:16:29;2.83;;;2.63;;
7473;SDS011;3778;42.572;23.426;2024-03-23T05:18:54;5.78;;;2.85;;
7473;SDS011;3778;42.572;23.426;2024-03-23T05:21:20;5.50;;;3.72;;
7473;SDS011;3778;42.572;23.426;2024-03-23T05:23:45;8.00;;;4.18;;
7473;SDS011;3778;42.572;23.426;2024-03-23T05:26:11;3.15;;;2.35;;
7473;SDS011;3778;42.572;23.426;2024-03-23T05:28:36;5.97;;;3.55;;
7473;SDS011;3778;42.572;23.426;2024-03-23T05:31:02;6.53;;;3.67;;
7473;SDS011;3778;42.572;23.426;2024-03-23T05:33:27;3.47;;;2.63;;
7473;SDS011;3778;42.572;23.426;2024-03-23T05:35:59;5.47;;;3.95;;
7473;SDS011;3778;42.572;23.426;2024-03-23T05:38:26;5.68;;;3.20;;
7473;SDS011;3778;42.572;23.426;2024-03-23T05:40:56;6.72;;;3.92;;
7473;SDS011;3778;42.572;23.426;2024-03-23T05:43:22;5.20;;;2.63;;
7473;SDS011;3778;42.572;23.426;2024-03-23T05:45:57;8.25;;;2.22;;
7473;SDS011;3778;42.572;23.426;2024-03-23T05:48:24;5.60;;;4.03;;
7473;SDS011;3778;42.572;23.426;2024-03-23T05:50:50;5.78;;;3.90;;
7473;SDS011;3778;42.572;23.426;2024-03-23T05:53:16;4.07;;;2.10;;
7473;SDS011;3778;42.572;23.426;2024-03-23T05:55:42;5.30;;;3.45;;
7473;SDS011;3778;42.572;23.426;2024-03-23T05:58:08;4.18;;;2.35;;
7473;SDS011;3778;42.572;23.426;2024-03-23T06:00:34;5.88;;;3.42;;
7473;SDS011;3778;42.572;23.426;2024-03-23T06:03:00;4.88;;;2.88;;
7473;SDS011;3778;42.572;23.426;2024-03-23T06:05:25;7.82;;;3.47;;
7473;SDS011;3778;42.572;23.426;2024-03-23T06:07:51;5.78;;;3.13;;
7473;SDS011;3778;42.572;23.426;2024-03-23T06:10:16;6.80;;;3.42;;
7473;SDS011;3778;42.572;23.426;2024-03-23T06:12:42;5.00;;;2.97;;
7473;SDS011;3778;42.572;23.426;2024-03-23T06:15:07;4.70;;;3.22;;
7473;SDS011;3778;42.572;23.426;2024-03-23T06:17:37;10.57;;;3.42;;
7473;SDS011;3778;42.572;23.426;2024-03-23T06:20:03;5.15;;;2.90;;
7473;SDS011;3778;42.572;23.426;2024-03-23T06:22:29;4.00;;;2.72;;
7473;SDS011;3778;42.572;23.426;2024-03-23T06:24:54;6.22;;;3.58;;
7473;SDS011;3778;42.572;23.426;2024-03-23T06:27:20;9.40;;;4.10;;
7473;SDS011;3778;42.572;23.426;2024-03-23T06:29:45;4.80;;;3.20;;
7473;SDS011;3778;42.572;23.426;2024-03-23T06:32:11;7.93;;;3.88;;
7473;SDS011;3778;42.572;23.426;2024-03-23T06:34:36;4.65;;;3.17;;
7473;SDS011;3778;42.572;23.426;2024-03-23T06:37:02;7.25;;;3.63;;
7473;SDS011;3778;42.572;23.426;2024-03-23T06:39:28;5.72;;;2.97;;
7473;SDS011;3778;42.572;23.426;2024-03-23T06:41:54;6.80;;;3.10;;
7473;SDS011;3778;42.572;23.426;2024-03-23T06:44:20;5.50;;;3.08;;
7473;SDS011;3778;42.572;23.426;2024-03-23T06:46:46;5.93;;;3.45;;
7473;SDS011;3778;42.572;23.426;2024-03-23T06:49:13;5.63;;;3.83;;
7473;SDS011;3778;42.572;23.426;2024-03-23T06:51:39;6.22;;;3.63;;
7473;SDS011;3778;42.572;23.426;2024-03-23T06:54:05;6.78;;;3.80;;
7473;SDS011;3778;42.572;23.426;2024-03-23T06:56:30;9.07;;;3.75;;
7473;SDS011;3778;42.572;23.426;2024-03-23T06:58:56;7.35;;;3.58;;
7473;SDS011;3778;42.572;23.426;2024-03-23T07:01:22;6.00;;;3.38;;
7473;SDS011;3778;42.572;23.426;2024-03-23T07:03:47;6.93;;;3.72;;
7473;SDS011;3778;42.572;23.426;2024-03-23T07:06:13;6.60;;;3.13;;
7473;SDS011;3778;42.572;23.426;2024-03-23T07:08:39;5.18;;;3.50;;
7473;SDS011;3778;42.572;23.426;2024-03-23T07:11:04;6.07;;;3.17;;
7473;SDS011;3778;42.572;23.426;2024-03-23T07:13:30;5.60;;;3.67;;
7473;SDS011;3778;42.572;23.426;2024-03-23T07:15:56;5.00;;;3.42;;
7473;SDS011;3778;42.572;23.426;2024-03-23T07:18:22;5.78;;;3.60;;
7473;SDS011;3778;42.572;23.426;2024-03-23T07:20:57;5.43;;;2.92;;
7473;SDS011;3778;42.572;23.426;2024-03-23T07:23:23;5.75;;;3.08;;
7473;SDS011;3778;42.572;23.426;2024-03-23T07:26:05;7.53;;;3.50;;
7473;SDS011;3778;42.572;23.426;2024-03-23T07:28:33;8.82;;;3.30;;
7473;SDS011;3778;42.572;23.426;2024-03-23T07:31:04;4.60;;;3.13;;
7473;SDS011;3778;42.572;23.426;2024-03-23T07:35:57;6.93;;;3.33;;
7473;SDS011;3778;42.572;23.426;2024-03-23T07:38:24;6.85;;;3.17;;
7473;SDS011;3778;42.572;23.426;2024-03-23T07:40:51;10.07;;;4.35;;
7473;SDS011;3778;42.572;23.426;2024-03-23T07:43:21;8.85;;;3.35;;
7473;SDS011;3778;42.572;23.426;2024-03-23T07:45:53;7.22;;;2.97;;
7473;SDS011;3778;42.572;23.426;2024-03-23T07:48:20;4.93;;;3.67;;
7473;SDS011;3778;42.572;23.426;2024-03-23T07:50:55;6.60;;;4.05;;
7473;SDS011;3778;42.572;23.426;2024-03-23T07:53:27;8.05;;;3.50;;
7473;SDS011;3778;42.572;23.426;2024-03-23T07:58:23;6.90;;;4.30;;
7473;SDS011;3778;42.572;23.426;2024-03-23T08:00:49;8.85;;;4.88;;
7473;SDS011;3778;42.572;23.426;2024-03-23T08:03:15;9.75;;;5.22;;
7473;SDS011;3778;42.572;23.426;2024-03-23T08:05:40;7.38;;;4.75;;
7473;SDS011;3778;42.572;23.426;2024-03-23T08:08:06;10.23;;;5.15;;
7473;SDS011;3778;42.572;23.426;2024-03-23T08:10:32;8.77;;;5.70;;
7473;SDS011;3778;42.572;23.426;2024-03-23T08:12:57;8.68;;;5.50;;
7473;SDS011;3778;42.572;23.426;2024-03-23T08:15:23;8.95;;;4.75;;
7473;SDS011;3778;42.572;23.426;2024-03-23T08:17:49;11.50;;;5.43;;
7473;SDS011;3778;42.572;23.426;2024-03-23T08:20:15;8.90;;;5.18;;
7473;SDS011;3778;42.572;23.426;2024-03-23T08:22:40;17.08;;;6.13;;
7473;SDS011;3778;42.572;23.426;2024-03-23T08:25:06;11.60;;;5.80;;
7473;SDS011;3778;42.572;23.426;2024-03-23T08:27:31;10.40;;;5.78;;
7473;SDS011;3778;42.572;23.426;2024-03-23T08:29:58;21.33;;;6.32;;
7473;SDS011;3778;42.572;23.426;2024-03-23T08:32:23;10.98;;;6.25;;
7473;SDS011;3778;42.572;23.426;2024-03-23T08:34:49;12.18;;;6.10;;
7473;SDS011;3778;42.572;23.426;2024-03-23T08:37:14;9.60;;;6.53;;
7473;SDS011;3778;42.572;23.426;2024-03-23T08:39:39;7.10;;;5.07;;
7473;SDS011;3778;42.572;23.426;2024-03-23T08:42:05;3.90;;;3.03;;
7473;SDS011;3778;42.572;23.426;2024-03-23T08:44:30;8.18;;;4.60;;
7473;SDS011;3778;42.572;23.426;2024-03-23T08:46:56;10.35;;;5.03;;
7473;SDS011;3778;42.572;23.426;2024-03-23T08:49:21;11.18;;;6.75;;
7473;SDS011;3778;42.572;23.426;2024-03-23T08:51:47;10.02;;;6.15;;
7473;SDS011;3778;42.572;23.426;2024-03-23T08:54:12;9.60;;;4.75;;
7473;SDS011;3778;42.572;23.426;2024-03-23T08:56:38;13.23;;;6.30;;
7473;SDS011;3778;42.572;23.426;2024-03-23T08:59:03;14.05;;;5.20;;
7473;SDS011;3778;42.572;23.426;2024-03-23T09:01:29;7.93;;;4.72;;
7473;SDS011;3778;42.572;23.426;2024-03-23T09:03:55;12.63;;;5.47;;
7473;SDS011;3778;42.572;23.426;2024-03-23T09:06:20;10.00;;;5.47;;
7473;SDS011;3778;42.572;23.426;2024-03-23T09:08:46;9.38;;;5.72;;
7473;SDS011;3778;42.572;23.426;2024-03-23T09:11:12;8.85;;;5.05;;
7473;SDS011;3778;42.572;23.426;2024-03-23T09:13:39;9.77;;;5.13;;
7473;SDS011;3778;42.572;23.426;2024-03-23T09:16:05;11.05;;;5.25;;
7473;SDS011;3778;42.572;23.426;2024-03-23T09:18:32;14.88;;;6.90;;
7473;SDS011;3778;42.572;23.426;2024-03-23T09:20:58;7.60;;;4.10;;
7473;SDS011;3778;42.572;23.426;2024-03-23T09:23:23;6.55;;;4.30;;
7473;SDS011;3778;42.572;23.426;2024-03-23T09:25:49;12.27;;;4.93;;
7473;SDS011;3778;42.572;23.426;2024-03-23T09:28:15;10.98;;;5.13;;
7473;SDS011;3778;42.572;23.426;2024-03-23T09:30:40;6.68;;;4.55;;
7473;SDS011;3778;42.572;23.426;2024-03-23T09:33:11;7.75;;;4.93;;
7473;SDS011;3778;42.572;23.426;2024-03-23T09:35:41;8.05;;;5.35;;
7473;SDS011;3778;42.572;23.426;2024-03-23T09:38:07;7.80;;;4.53;;
7473;SDS011;3778;42.572;23.426;2024-03-23T09:40:34;8.13;;;5.45;;
7473;SDS011;3778;42.572;23.426;2024-03-23T09:43:00;8.60;;;4.78;;
7473;SDS011;3778;42.572;23.426;2024-03-23T09:45:29;9.80;;;5.70;;
7473;SDS011;3778;42.572;23.426;2024-03-23T09:47:55;5.25;;;3.05;;
7473;SDS011;3778;42.572;23.426;2024-03-23T09:50:21;8.00;;;4.63;;
7473;SDS011;3778;42.572;23.426;2024-03-23T09:52:47;9.88;;;4.90;;
7473;SDS011;3778;42.572;23.426;2024-03-23T09:55:13;7.70;;;5.47;;
7473;SDS011;3778;42.572;23.426;2024-03-23T09:57:39;8.13;;;5.13;;
7473;SDS011;3778;42.572;23.426;2024-03-23T10:00:05;7.03;;;4.43;;
7473;SDS011;3778;42.572;23.426;2024-03-23T10:02:31;10.65;;;5.43;;
7473;SDS011;3778;42.572;23.426;2024-03-23T10:04:58;7.05;;;4.22;;
7473;SDS011;3778;42.572;23.426;2024-03-23T10:07:25;9.73;;;5.10;;
7473;SDS011;3778;42.572;23.426;2024-03-23T10:09:53;9.57;;;4.85;;
7473;SDS011;3778;42.572;23.426;2024-03-23T10:12:19;9.73;;;4.45;;
7473;SDS011;3778;42.572;23.426;2024-03-23T10:14:45;7.40;;;4.60;;
7473;SDS011;3778;42.572;23.426;2024-03-23T10:17:15;7.00;;;5.10;;
7473;SDS011;3778;42.572;23.426;2024-03-23T10:19:43;11.65;;;5.55;;
7473;SDS011;3778;42.572;23.426;2024-03-23T10:22:10;6.63;;;4.28;;
7473;SDS011;3778;42.572;23.426;2024-03-23T10:24:38;9.25;;;4.38;;
7473;SDS011;3778;42.572;23.426;2024-03-23T10:27:03;9.98;;;5.70;;
7473;SDS011;3778;42.572;23.426;2024-03-23T10:29:29;13.07;;;8.07;;
7473;SDS011;3778;42.572;23.426;2024-03-23T10:31:55;11.43;;;6.18;;
7473;SDS011;3778;42.572;23.426;2024-03-23T10:34:32;15.77;;;6.18;;
7473;SDS011;3778;42.572;23.426;2024-03-23T10:36:58;9.05;;;4.18;;
7473;SDS011;3778;42.572;23.426;2024-03-23T10:39:25;11.50;;;4.75;;
7473;SDS011;3778;42.572;23.426;2024-03-23T10:41:50;9.27;;;3.85;;
7473;SDS011;3778;42.572;23.426;2024-03-23T10:44:18;6.38;;;3.92;;
7473;SDS011;3778;42.572;23.426;2024-03-23T10:46:44;9.35;;;3.58;;
7473;SDS011;3778;42.572;23.426;2024-03-23T10:49:10;6.38;;;3.90;;
7473;SDS011;3778;42.572;23.426;2024-03-23T10:51:36;8.25;;;4.57;;
7473;SDS011;3778;42.572;23.426;2024-03-23T10:54:04;7.68;;;4.00;;
7473;SDS011;3778;42.572;23.426;2024-03-23T10:56:31;8.27;;;4.60;;
7473;SDS011;3778;42.572;23.426;2024-03-23T10:59:00;6.10;;;3.90;;
7473;SDS011;3778;42.572;23.426;2024-03-23T11:01:28;6.25;;;3.50;;
7473;SDS011;3778;42.572;23.426;2024-03-23T11:03:53;8.25;;;4.15;;
7473;SDS011;3778;42.572;23.426;2024-03-23T11:06:37;7.07;;;3.58;;
7473;SDS011;3778;42.572;23.426;2024-03-23T11:09:25;5.32;;;4.13;;
7473;SDS011;3778;42.572;23.426;2024-03-23T11:12:17;5.55;;;3.78;;
7473;SDS011;3778;42.572;23.426;2024-03-23T11:14:48;6.05;;;4.13;;
7473;SDS011;3778;42.572;23.426;2024-03-23T11:17:19;5.60;;;3.55;;
7473;SDS011;3778;42.572;23.426;2024-03-23T11:19:58;10.88;;;3.80;;
7473;SDS011;3778;42.572;23.426;2024-03-23T11:22:43;5.38;;;3.33;;
7473;SDS011;3778;42.572;23.426;2024-03-23T11:27:51;4.85;;;3.30;;
7473;SDS011;3778;42.572;23.426;2024-03-23T11:30:37;6.68;;;3.40;;
7473;SDS011;3778;42.572;23.426;2024-03-23T11:33:05;6.00;;;3.78;;
7473;SDS011;3778;42.572;23.426;2024-03-23T11:35:31;6.93;;;3.63;;
7473;SDS011;3778;42.572;23.426;2024-03-23T11:38:02;5.68;;;4.05;;
7473;SDS011;3778;42.572;23.426;2024-03-23T11:40:31;7.95;;;3.97;;
7473;SDS011;3778;42.572;23.426;2024-03-23T11:43:01;5.72;;;4.28;;
7473;SDS011;3778;42.572;23.426;2024-03-23T11:45:28;4.93;;;3.58;;
7473;SDS011;3778;42.572;23.426;2024-03-23T12:40:49;5.75;;;3.13;;
7473;SDS011;3778;42.572;23.426;2024-03-23T12:43:15;6.50;;;3.42;;
7473;SDS011;3778;42.572;23.426;2024-03-23T12:45:41;10.07;;;3.40;;
7473;SDS011;3778;42.572;23.426;2024-03-23T12:48:06;6.00;;;3.85;;
7473;SDS011;3778;42.572;23.426;2024-03-23T12:50:32;19.08;;;5.40;;
7473;SDS011;3778;42.572;23.426;2024-03-23T12:52:58;10.55;;;3.95;;
7473;SDS011;3778;42.572;23.426;2024-03-23T12:55:24;8.75;;;3.03;;
7473;SDS011;3778;42.572;23.426;2024-03-23T12:57:49;6.40;;;3.30;;
7473;SDS011;3778;42.572;23.426;2024-03-23T13:00:15;7.18;;;3.47;;
7473;SDS011;3778;42.572;23.426;2024-03-23T13:02:43;6.90;;;4.18;;
7473;SDS011;3778;42.572;23.426;2024-03-23T13:05:09;8.32;;;4.70;;
7473;SDS011;3778;42.572;23.426;2024-03-23T13:07:35;5.78;;;3.70;;
7473;SDS011;3778;42.572;23.426;2024-03-23T13:10:02;6.03;;;4.00;;
7473;SDS011;3778;42.572;23.426;2024-03-23T13:12:28;4.68;;;3.22;;
7473;SDS011;3778;42.572;23.426;2024-03-23T13:14:54;8.20;;;3.75;;
7473;SDS011;3778;42.572;23.426;2024-03-23T13:17:19;8.40;;;3.10;;
7473;SDS011;3778;42.572;23.426;2024-03-23T13:19:45;8.98;;;4.20;;
7473;SDS011;3778;42.572;23.426;2024-03-23T13:22:10;7.05;;;3.78;;
7473;SDS011;3778;42.572;23.426;2024-03-23T13:24:36;8.82;;;3.80;;
7473;SDS011;3778;42.572;23.426;2024-03-23T13:27:02;6.88;;;3.50;;
7473;SDS011;3778;42.572;23.426;2024-03-23T13:29:29;4.50;;;3.30;;
7473;SDS011;3778;42.572;23.426;2024-03-23T13:31:55;7.07;;;4.15;;
7473;SDS011;3778;42.572;23.426;2024-03-23T13:34:20;5.93;;;3.05;;
7473;SDS011;3778;42.572;23.426;2024-03-23T13:36:46;4.85;;;3.03;;
7473;SDS011;3778;42.572;23.426;2024-03-23T13:39:12;6.68;;;3.13;;
7473;SDS011;3778;42.572;23.426;2024-03-23T13:41:42;4.32;;;3.25;;
7473;SDS011;3778;42.572;23.426;2024-03-23T13:46:40;5.20;;;3.58;;
7473;SDS011;3778;42.572;23.426;2024-03-23T13:49:13;4.53;;;3.13;;
7473;SDS011;3778;42.572;23.426;2024-03-23T13:51:53;6.55;;;3.40;;
7473;SDS011;3778;42.572;23.426;2024-03-23T13:54:20;6.22;;;3.33;;
7473;SDS011;3778;42.572;23.426;2024-03-23T13:56:47;4.88;;;2.92;;
7473;SDS011;3778;42.572;23.426;2024-03-23T13:59:13;5.70;;;3.03;;
7473;SDS011;3778;42.572;23.426;2024-03-23T14:01:39;4.88;;;2.90;;
7473;SDS011;3778;42.572;23.426;2024-03-23T14:04:05;5.45;;;3.10;;
7473;SDS011;3778;42.572;23.426;2024-03-23T14:06:31;4.85;;;2.72;;
7473;SDS011;3778;42.572;23.426;2024-03-23T14:08:56;3.80;;;2.70;;
7473;SDS011;3778;42.572;23.426;2024-03-23T14:11:22;6.43;;;3.00;;
7473;SDS011;3778;42.572;23.426;2024-03-23T14:13:47;7.10;;;3.05;;
7473;SDS011;3778;42.572;23.426;2024-03-23T14:16:13;5.85;;;2.88;;
7473;SDS011;3778;42.572;23.426;2024-03-23T14:18:38;5.90;;;3.55;;
7473;SDS011;3778;42.572;23.426;2024-03-23T14:21:03;3.65;;;2.53;;
7473;SDS011;3778;42.572;23.426;2024-03-23T14:23:30;4.18;;;2.30;;
7473;SDS011;3778;42.572;23.426;2024-03-23T14:25:59;5.13;;;2.75;;
7473;SDS011;3778;42.572;23.426;2024-03-23T14:28:24;5.57;;;2.90;;
7473;SDS011;3778;42.572;23.426;2024-03-23T14:30:50;5.38;;;2.92;;
7473;SDS011;3778;42.572;23.426;2024-03-23T14:33:17;5.40;;;2.92;;
7473;SDS011;3778;42.572;23.426;2024-03-23T14:35:43;6.47;;;3.50;;
7473;SDS011;3778;42.572;23.426;2024-03-23T14:38:09;6.70;;;2.80;;
7473;SDS011;3778;42.572;23.426;2024-03-23T14:40:35;5.35;;;2.17;;
7473;SDS011;3778;42.572;23.426;2024-03-23T14:43:00;4.40;;;2.00;;
7473;SDS011;3778;42.572;23.426;2024-03-23T14:45:26;5.25;;;2.10;;
7473;SDS011;3778;42.572;23.426;2024-03-23T14:47:51;4.05;;;1.92;;
7473;SDS011;3778;42.572;23.426;2024-03-23T14:50:17;4.35;;;2.15;;
7473;SDS011;3778;42.572;23.426;2024-03-23T14:52:46;4.40;;;2.28;;
7473;SDS011;3778;42.572;23.426;2024-03-23T14:55:11;3.70;;;2.03;;
7473;SDS011;3778;42.572;23.426;2024-03-23T14:57:37;4.78;;;2.33;;
7473;SDS011;3778;42.572;23.426;2024-03-23T15:00:09;1.35;;;0.80;;
7473;SDS011;3778;42.572;23.426;2024-03-23T15:02:38;1.65;;;1.25;;
7473;SDS011;3778;42.572;23.426;2024-03-23T15:05:04;0.32;;;0.30;;
7473;SDS011;3778;42.572;23.426;2024-03-23T15:07:31;0.85;;;0.63;;
7473;SDS011;3778;42.572;23.426;2024-03-23T15:09:56;1.48;;;0.70;;
7473;SDS011;3778;42.572;23.426;2024-03-23T15:12:21;1.00;;;0.88;;
7473;SDS011;3778;42.572;23.426;2024-03-23T15:14:47;0.65;;;0.60;;
7473;SDS011;3778;42.572;23.426;2024-03-23T15:17:13;0.95;;;0.82;;
7473;SDS011;3778;42.572;23.426;2024-03-23T15:19:38;2.47;;;0.90;;
7473;SDS011;3778;42.572;23.426;2024-03-23T15:22:04;1.40;;;0.80;;
7473;SDS011;3778;42.572;23.426;2024-03-23T15:24:29;2.22;;;0.90;;
7473;SDS011;3778;42.572;23.426;2024-03-23T15:26:54;1.67;;;1.20;;
7473;SDS011;3778;42.572;23.426;2024-03-23T15:29:23;1.48;;;0.90;;
7473;SDS011;3778;42.572;23.426;2024-03-23T15:31:48;2.05;;;1.00;;
7473;SDS011;3778;42.572;23.426;2024-03-23T15:34:17;1.33;;;1.00;;
7473;SDS011;3778;42.572;23.426;2024-03-23T15:36:47;2.20;;;0.93;;
7473;SDS011;3778;42.572;23.426;2024-03-23T15:39:14;1.45;;;1.10;;
7473;SDS011;3778;42.572;23.426;2024-03-23T15:41:40;2.47;;;1.08;;
7473;SDS011;3778;42.572;23.426;2024-03-23T15:44:05;2.63;;;0.93;;
7473;SDS011;3778;42.572;23.426;2024-03-23T15:46:31;1.52;;;1.13;;
7473;SDS011;3778;42.572;23.426;2024-03-23T15:48:56;1.45;;;1.10;;
7473;SDS011;3778;42.572;23.426;2024-03-23T15:51:22;1.58;;;1.00;;
7473;SDS011;3778;42.572;23.426;2024-03-23T15:53:47;1.75;;;1.15;;
7473;SDS011;3778;42.572;23.426;2024-03-23T15:56:13;2.03;;;1.27;;
7473;SDS011;3778;42.572;23.426;2024-03-23T15:58:38;0.95;;;0.70;;
7473;SDS011;3778;42.572;23.426;2024-03-23T16:01:04;1.73;;;0.82;;
7473;SDS011;3778;42.572;23.426;2024-03-23T16:03:31;1.67;;;0.80;;
7473;SDS011;3778;42.572;23.426;2024-03-23T16:06:02;1.50;;;1.20;;
7473;SDS011;3778;42.572;23.426;2024-03-23T16:08:28;1.52;;;0.82;;
7473;SDS011;3778;42.572;23.426;2024-03-23T16:10:59;1.40;;;0.65;;
7473;SDS011;3778;42.572;23.426;2024-03-23T16:13:25;0.75;;;0.60;;
7473;SDS011;3778;42.572;23.426;2024-03-23T16:16:00;1.83;;;0.93;;
7473;SDS011;3778;42.572;23.426;2024-03-23T16:18:35;1.63;;;1.42;;
7473;SDS011;3778;42.572;23.426;2024-03-23T16:21:02;1.88;;;1.10;;
7473;SDS011;3778;42.572;23.426;2024-03-23T16:23:29;2.05;;;1.45;;
7473;SDS011;3778;42.572;23.426;2024-03-23T16:25:57;1.55;;;1.08;;
7473;SDS011;3778;42.572;23.426;2024-03-23T16:28:26;3.15;;;1.33;;
7473;SDS011;3778;42.572;23.426;2024-03-23T16:33:25;2.67;;;1.30;;
7473;SDS011;3778;42.572;23.426;2024-03-23T16:35:57;2.58;;;1.27;;
7473;SDS011;3778;42.572;23.426;2024-03-23T16:38:23;1.92;;;1.27;;
7473;SDS011;3778;42.572;23.426;2024-03-23T16:40:58;1.90;;;1.27;;
7473;SDS011;3778;42.572;23.426;2024-03-23T16:43:25;2.15;;;1.10;;
7473;SDS011;3778;42.572;23.426;2024-03-23T16:48:22;1.40;;;1.30;;
7473;SDS011;3778;42.572;23.426;2024-03-23T16:50:48;5.88;;;1.60;;
7473;SDS011;3778;42.572;23.426;2024-03-23T16:53:14;1.88;;;1.55;;
7473;SDS011;3778;42.572;23.426;2024-03-23T16:55:40;1.60;;;1.23;;
7473;SDS011;3778;42.572;23.426;2024-03-23T16:58:05;2.08;;;1.50;;
7473;SDS011;3778;42.572;23.426;2024-03-23T17:00:31;1.75;;;1.50;;